Pagrindinis puslapis
METAR-TAF:

METAR-TAF

Oro uostai :

Arišas, Egiptas

platuma: 31-05N, ilguma: 033-49E, Aukštis: 31 m

METAR: trūkstamas

Laikas: 11:49 (09:49 UTC)

Prognozė

Ataskaita buvo paskelbta 4 valandos ir 49 minutes, ne 05:00 UTC
Prognozė galioja nuo 02 metu 06 UTC su 03 metu 12 UTC
Vėjas 8 kt iš Vakarų/Pietvakarių
Matomumas 10 km arba daugiau
Išsisklaidę debesys ne aukštis 2000 ft
Laikinai
nuo 02 metu 06 UTC su 02 metu 08 UTC
Vėjas 3 kt nuo kintamojo kryptimis
Matomumas: 3000 m
rūkana

TAF: HEAR 020500Z 0206/0312 25008KT 9999 SCT020 TEMPO 0206/0208 VRB03KT 3000 BR

Orai ataskaitas ir orų prognozės (METAR, TAF).

turimą stotys yra geltonos ir raudonos taškus žemėlapyje.

Perkelti pele per norėdami pamatyti stoties vardą.

Tada spustelėkite, norėdami matyti oro stebėjimo ir prognozės.

Norėdami pakeisti žemėlapį: spustelėkite ant žalios mygtukų su juodo kryžiaus žemyn,; žalią mygtuką su brūkšneliu, jei norite nutolinti; arba žalių rodyklių gretimoms žemėlapius.


METAR-TAF: